sensor_id;sensor_type;location;lat;lon;timestamp;temperature;humidity
1546;DHT22;766;51.502;9.752;2023-06-05T00:00:22;12.00;99.90
1546;DHT22;766;51.502;9.752;2023-06-05T00:02:51;11.80;99.90
1546;DHT22;766;51.502;9.752;2023-06-05T00:05:21;11.90;99.90
1546;DHT22;766;51.502;9.752;2023-06-05T00:07:53;11.90;99.90
1546;DHT22;766;51.502;9.752;2023-06-05T00:10:21;12.20;99.90
1546;DHT22;766;51.502;9.752;2023-06-05T00:12:49;11.90;99.90
1546;DHT22;766;51.502;9.752;2023-06-05T00:15:17;11.90;99.90
1546;DHT22;766;51.502;9.752;2023-06-05T00:17:45;11.80;99.90
1546;DHT22;766;51.502;9.752;2023-06-05T00:20:14;12.00;99.90
1546;DHT22;766;51.502;9.752;2023-06-05T00:22:43;11.90;99.90
1546;DHT22;766;51.502;9.752;2023-06-05T00:25:14;12.00;99.90
1546;DHT22;766;51.502;9.752;2023-06-05T00:27:42;11.90;99.90
1546;DHT22;766;51.502;9.752;2023-06-05T00:30:11;12.10;99.90
1546;DHT22;766;51.502;9.752;2023-06-05T00:32:41;12.30;99.90
1546;DHT22;766;51.502;9.752;2023-06-05T00:35:09;12.10;99.90
1546;DHT22;766;51.502;9.752;2023-06-05T00:37:39;12.10;99.90
1546;DHT22;766;51.502;9.752;2023-06-05T00:40:10;12.20;99.90
1546;DHT22;766;51.502;9.752;2023-06-05T00:42:39;12.30;99.90
1546;DHT22;766;51.502;9.752;2023-06-05T00:45:07;12.40;99.90
1546;DHT22;766;51.502;9.752;2023-06-05T00:47:37;12.30;99.90
1546;DHT22;766;51.502;9.752;2023-06-05T00:50:07;12.40;99.90
1546;DHT22;766;51.502;9.752;2023-06-05T00:52:36;12.40;99.90
1546;DHT22;766;51.502;9.752;2023-06-05T00:55:05;12.40;99.90
1546;DHT22;766;51.502;9.752;2023-06-05T00:57:35;12.50;99.90
1546;DHT22;766;51.502;9.752;2023-06-05T01:00:06;12.20;99.90
1546;DHT22;766;51.502;9.752;2023-06-05T01:02:36;11.80;99.90
1546;DHT22;766;51.502;9.752;2023-06-05T01:05:05;11.80;99.90
1546;DHT22;766;51.502;9.752;2023-06-05T01:07:38;11.90;99.90
1546;DHT22;766;51.502;9.752;2023-06-05T01:10:12;11.70;99.90
1546;DHT22;766;51.502;9.752;2023-06-05T01:12:51;11.90;99.90
1546;DHT22;766;51.502;9.752;2023-06-05T01:15:27;11.80;99.90
1546;DHT22;766;51.502;9.752;2023-06-05T01:17:57;11.90;99.90
1546;DHT22;766;51.502;9.752;2023-06-05T01:20:36;12.00;99.90
1546;DHT22;766;51.502;9.752;2023-06-05T01:23:10;12.00;99.90
1546;DHT22;766;51.502;9.752;2023-06-05T01:25:40;12.10;99.90
1546;DHT22;766;51.502;9.752;2023-06-05T01:28:13;12.00;99.90
1546;DHT22;766;51.502;9.752;2023-06-05T01:30:48;12.20;99.90
1546;DHT22;766;51.502;9.752;2023-06-05T01:33:26;12.20;99.90
1546;DHT22;766;51.502;9.752;2023-06-05T01:35:55;12.00;99.90
1546;DHT22;766;51.502;9.752;2023-06-05T01:38:37;12.00;99.90
1546;DHT22;766;51.502;9.752;2023-06-05T01:41:09;12.10;99.90
1546;DHT22;766;51.502;9.752;2023-06-05T01:43:39;12.30;99.90
1546;DHT22;766;51.502;9.752;2023-06-05T01:46:15;12.40;99.90
1546;DHT22;766;51.502;9.752;2023-06-05T01:48:46;12.20;99.90
1546;DHT22;766;51.502;9.752;2023-06-05T01:51:20;12.10;99.90
1546;DHT22;766;51.502;9.752;2023-06-05T01:54:32;12.10;99.90
1546;DHT22;766;51.502;9.752;2023-06-05T01:57:24;12.10;99.90
1546;DHT22;766;51.502;9.752;2023-06-05T02:00:08;12.30;99.90
1546;DHT22;766;51.502;9.752;2023-06-05T02:02:40;12.30;99.90
1546;DHT22;766;51.502;9.752;2023-06-05T02:05:09;12.20;99.90
1546;DHT22;766;51.502;9.752;2023-06-05T02:07:40;12.20;99.90
1546;DHT22;766;51.502;9.752;2023-06-05T02:10:10;12.10;99.90
1546;DHT22;766;51.502;9.752;2023-06-05T02:12:38;12.10;99.90
1546;DHT22;766;51.502;9.752;2023-06-05T02:15:08;12.00;99.90
1546;DHT22;766;51.502;9.752;2023-06-05T02:17:40;12.30;99.90
1546;DHT22;766;51.502;9.752;2023-06-05T02:20:12;12.30;99.90
1546;DHT22;766;51.502;9.752;2023-06-05T02:22:40;12.40;99.90
1546;DHT22;766;51.502;9.752;2023-06-05T02:25:11;12.30;99.90
1546;DHT22;766;51.502;9.752;2023-06-05T02:30:54;12.20;99.90
1546;DHT22;766;51.502;9.752;2023-06-05T02:33:32;12.10;99.90
1546;DHT22;766;51.502;9.752;2023-06-05T02:36:05;12.20;99.90
1546;DHT22;766;51.502;9.752;2023-06-05T02:38:35;12.20;99.90
1546;DHT22;766;51.502;9.752;2023-06-05T02:41:07;12.00;99.90
1546;DHT22;766;51.502;9.752;2023-06-05T02:43:38;11.80;99.90
1546;DHT22;766;51.502;9.752;2023-06-05T02:46:07;11.80;99.90
1546;DHT22;766;51.502;9.752;2023-06-05T02:48:35;11.90;99.90
1546;DHT22;766;51.502;9.752;2023-06-05T02:51:06;11.80;99.90
1546;DHT22;766;51.502;9.752;2023-06-05T02:53:36;11.50;99.90
1546;DHT22;766;51.502;9.752;2023-06-05T02:56:07;11.60;99.90
1546;DHT22;766;51.502;9.752;2023-06-05T02:58:35;11.60;99.90
1546;DHT22;766;51.502;9.752;2023-06-05T03:01:04;11.50;99.90
1546;DHT22;766;51.502;9.752;2023-06-05T03:03:35;11.50;99.90
1546;DHT22;766;51.502;9.752;2023-06-05T03:06:04;11.30;99.90
1546;DHT22;766;51.502;9.752;2023-06-05T03:08:34;11.10;99.90
1546;DHT22;766;51.502;9.752;2023-06-05T03:11:06;11.00;99.90
1546;DHT22;766;51.502;9.752;2023-06-05T03:13:34;10.90;99.90
1546;DHT22;766;51.502;9.752;2023-06-05T03:16:03;11.10;99.90
1546;DHT22;766;51.502;9.752;2023-06-05T03:18:32;11.10;99.90
1546;DHT22;766;51.502;9.752;2023-06-05T03:21:00;10.90;99.90
1546;DHT22;766;51.502;9.752;2023-06-05T03:23:28;10.90;99.90
1546;DHT22;766;51.502;9.752;2023-06-05T03:25:57;10.90;99.90
1546;DHT22;766;51.502;9.752;2023-06-05T03:28:26;10.90;99.90
1546;DHT22;766;51.502;9.752;2023-06-05T03:30:55;11.00;99.90
1546;DHT22;766;51.502;9.752;2023-06-05T03:33:23;11.00;99.90
1546;DHT22;766;51.502;9.752;2023-06-05T03:35:51;10.90;99.90
1546;DHT22;766;51.502;9.752;2023-06-05T03:38:22;10.90;99.90
1546;DHT22;766;51.502;9.752;2023-06-05T03:40:53;11.00;99.90
1546;DHT22;766;51.502;9.752;2023-06-05T03:43:21;11.00;99.90
1546;DHT22;766;51.502;9.752;2023-06-05T03:45:53;10.80;99.90
1546;DHT22;766;51.502;9.752;2023-06-05T03:48:21;10.60;99.90
1546;DHT22;766;51.502;9.752;2023-06-05T03:50:49;10.70;99.90
1546;DHT22;766;51.502;9.752;2023-06-05T03:53:20;10.70;99.90
1546;DHT22;766;51.502;9.752;2023-06-05T03:55:51;10.80;99.90
1546;DHT22;766;51.502;9.752;2023-06-05T03:58:20;11.00;99.90
1546;DHT22;766;51.502;9.752;2023-06-05T04:00:51;10.90;99.90
1546;DHT22;766;51.502;9.752;2023-06-05T04:03:22;11.00;99.90
1546;DHT22;766;51.502;9.752;2023-06-05T04:05:52;11.00;99.90
1546;DHT22;766;51.502;9.752;2023-06-05T04:08:21;11.10;99.90
1546;DHT22;766;51.502;9.752;2023-06-05T04:10:52;11.10;99.90
1546;DHT22;766;51.502;9.752;2023-06-05T04:13:23;11.10;99.90
1546;DHT22;766;51.502;9.752;2023-06-05T04:15:57;11.10;99.90
1546;DHT22;766;51.502;9.752;2023-06-05T04:18:30;11.20;99.90
1546;DHT22;766;51.502;9.752;2023-06-05T04:20:59;11.30;99.90
1546;DHT22;766;51.502;9.752;2023-06-05T04:23:28;11.30;99.90
1546;DHT22;766;51.502;9.752;2023-06-05T04:25:57;11.30;99.90
1546;DHT22;766;51.502;9.752;2023-06-05T04:28:27;11.40;99.90
1546;DHT22;766;51.502;9.752;2023-06-05T04:30:58;11.40;99.90
1546;DHT22;766;51.502;9.752;2023-06-05T04:33:26;11.40;99.90
1546;DHT22;766;51.502;9.752;2023-06-05T04:35:59;11.60;99.90
1546;DHT22;766;51.502;9.752;2023-06-05T04:38:36;11.60;99.90
1546;DHT22;766;51.502;9.752;2023-06-05T04:41:06;11.70;99.90
1546;DHT22;766;51.502;9.752;2023-06-05T04:43:35;11.80;99.90
1546;DHT22;766;51.502;9.752;2023-06-05T04:46:07;12.00;99.90
1546;DHT22;766;51.502;9.752;2023-06-05T04:48:35;12.30;99.90
1546;DHT22;766;51.502;9.752;2023-06-05T04:51:09;12.50;99.90
1546;DHT22;766;51.502;9.752;2023-06-05T04:53:39;12.40;99.90
1546;DHT22;766;51.502;9.752;2023-06-05T04:56:08;12.80;99.90
1546;DHT22;766;51.502;9.752;2023-06-05T04:58:37;12.90;99.90
1546;DHT22;766;51.502;9.752;2023-06-05T05:01:09;12.70;99.90
1546;DHT22;766;51.502;9.752;2023-06-05T05:03:39;13.10;99.90
1546;DHT22;766;51.502;9.752;2023-06-05T05:06:14;13.40;99.90
1546;DHT22;766;51.502;9.752;2023-06-05T05:08:44;13.40;99.90
1546;DHT22;766;51.502;9.752;2023-06-05T05:11:13;13.60;99.90
1546;DHT22;766;51.502;9.752;2023-06-05T05:13:43;14.00;99.90
1546;DHT22;766;51.502;9.752;2023-06-05T05:16:11;14.80;99.90
1546;DHT22;766;51.502;9.752;2023-06-05T05:18:43;15.40;99.90
1546;DHT22;766;51.502;9.752;2023-06-05T05:21:14;15.20;99.90
1546;DHT22;766;51.502;9.752;2023-06-05T05:23:44;14.90;99.90
1546;DHT22;766;51.502;9.752;2023-06-05T05:26:15;14.70;99.90
1546;DHT22;766;51.502;9.752;2023-06-05T05:28:46;14.50;99.90
1546;DHT22;766;51.502;9.752;2023-06-05T05:31:45;14.30;99.90
1546;DHT22;766;51.502;9.752;2023-06-05T05:34:14;14.30;99.90
1546;DHT22;766;51.502;9.752;2023-06-05T05:36:45;14.30;99.90
1546;DHT22;766;51.502;9.752;2023-06-05T05:39:14;14.30;99.90
1546;DHT22;766;51.502;9.752;2023-06-05T05:41:46;14.60;99.90
1546;DHT22;766;51.502;9.752;2023-06-05T05:44:16;14.80;99.90
1546;DHT22;766;51.502;9.752;2023-06-05T05:46:46;15.00;99.90
1546;DHT22;766;51.502;9.752;2023-06-05T05:49:19;14.80;99.90
1546;DHT22;766;51.502;9.752;2023-06-05T05:51:51;15.10;99.90
1546;DHT22;766;51.502;9.752;2023-06-05T05:54:22;14.90;99.90
1546;DHT22;766;51.502;9.752;2023-06-05T05:56:56;15.20;99.90
1546;DHT22;766;51.502;9.752;2023-06-05T05:59:24;15.70;99.90
1546;DHT22;766;51.502;9.752;2023-06-05T06:01:53;16.00;99.90
1546;DHT22;766;51.502;9.752;2023-06-05T06:04:25;16.80;99.90
1546;DHT22;766;51.502;9.752;2023-06-05T06:07:00;17.90;99.90
1546;DHT22;766;51.502;9.752;2023-06-05T06:09:42;19.20;99.90
1546;DHT22;766;51.502;9.752;2023-06-05T06:12:17;20.50;99.90
1546;DHT22;766;51.502;9.752;2023-06-05T06:14:59;20.80;99.90
1546;DHT22;766;51.502;9.752;2023-06-05T06:17:40;21.10;99.90
1546;DHT22;766;51.502;9.752;2023-06-05T06:20:09;22.00;99.90
1546;DHT22;766;51.502;9.752;2023-06-05T06:22:43;22.70;99.90
1546;DHT22;766;51.502;9.752;2023-06-05T06:25:12;23.20;99.90
1546;DHT22;766;51.502;9.752;2023-06-05T06:27:44;23.30;99.90
1546;DHT22;766;51.502;9.752;2023-06-05T06:30:15;24.30;99.90
1546;DHT22;766;51.502;9.752;2023-06-05T06:32:43;25.00;99.90
1546;DHT22;766;51.502;9.752;2023-06-05T06:35:12;25.70;99.90
1546;DHT22;766;51.502;9.752;2023-06-05T06:37:44;25.60;99.90
1546;DHT22;766;51.502;9.752;2023-06-05T06:40:12;26.50;99.90
1546;DHT22;766;51.502;9.752;2023-06-05T06:42:41;27.00;99.50
1546;DHT22;766;51.502;9.752;2023-06-05T06:45:10;27.40;98.40
1546;DHT22;766;51.502;9.752;2023-06-05T06:47:38;27.70;98.70
1546;DHT22;766;51.502;9.752;2023-06-05T06:50:09;28.10;96.40
1546;DHT22;766;51.502;9.752;2023-06-05T06:52:37;28.10;96.30
1546;DHT22;766;51.502;9.752;2023-06-05T06:55:08;27.70;95.30
1546;DHT22;766;51.502;9.752;2023-06-05T06:57:37;27.70;96.30
1546;DHT22;766;51.502;9.752;2023-06-05T07:00:07;27.80;94.10
1546;DHT22;766;51.502;9.752;2023-06-05T07:02:40;27.60;94.70
1546;DHT22;766;51.502;9.752;2023-06-05T07:05:09;28.40;94.70
1546;DHT22;766;51.502;9.752;2023-06-05T07:07:37;28.90;93.60
1546;DHT22;766;51.502;9.752;2023-06-05T07:10:09;29.30;92.80
1546;DHT22;766;51.502;9.752;2023-06-05T07:12:37;29.70;92.10
1546;DHT22;766;51.502;9.752;2023-06-05T07:15:07;29.70;90.40
1546;DHT22;766;51.502;9.752;2023-06-05T07:17:35;28.70;91.00
1546;DHT22;766;51.502;9.752;2023-06-05T07:20:04;27.80;90.70
1546;DHT22;766;51.502;9.752;2023-06-05T07:22:33;28.10;92.10
1546;DHT22;766;51.502;9.752;2023-06-05T07:25:02;30.20;90.10
1546;DHT22;766;51.502;9.752;2023-06-05T07:27:33;30.30;88.90
1546;DHT22;766;51.502;9.752;2023-06-05T07:30:03;31.20;87.00
1546;DHT22;766;51.502;9.752;2023-06-05T07:32:31;31.60;82.50
1546;DHT22;766;51.502;9.752;2023-06-05T07:35:00;31.50;82.90
1546;DHT22;766;51.502;9.752;2023-06-05T07:37:29;29.10;72.20
1546;DHT22;766;51.502;9.752;2023-06-05T07:39:58;29.40;75.50
1546;DHT22;766;51.502;9.752;2023-06-05T07:42:27;28.50;73.60
1546;DHT22;766;51.502;9.752;2023-06-05T07:44:56;28.10;71.40
1546;DHT22;766;51.502;9.752;2023-06-05T07:47:26;29.30;73.00
1546;DHT22;766;51.502;9.752;2023-06-05T07:49:57;29.50;72.60
1546;DHT22;766;51.502;9.752;2023-06-05T07:52:26;29.00;71.40
1546;DHT22;766;51.502;9.752;2023-06-05T07:54:55;29.60;70.60
1546;DHT22;766;51.502;9.752;2023-06-05T07:57:23;27.40;69.60
1546;DHT22;766;51.502;9.752;2023-06-05T07:59:52;25.80;74.50
1546;DHT22;766;51.502;9.752;2023-06-05T08:02:23;26.50;75.50
1546;DHT22;766;51.502;9.752;2023-06-05T08:04:52;26.50;71.40
1546;DHT22;766;51.502;9.752;2023-06-05T08:07:20;25.70;74.00
1546;DHT22;766;51.502;9.752;2023-06-05T08:09:49;25.70;75.20
1546;DHT22;766;51.502;9.752;2023-06-05T08:12:18;27.00;73.90
1546;DHT22;766;51.502;9.752;2023-06-05T08:14:46;28.10;71.70
1546;DHT22;766;51.502;9.752;2023-06-05T08:17:15;28.40;70.40
1546;DHT22;766;51.502;9.752;2023-06-05T08:19:45;27.50;69.40
1546;DHT22;766;51.502;9.752;2023-06-05T08:22:14;26.80;69.00
1546;DHT22;766;51.502;9.752;2023-06-05T08:24:42;26.70;71.10
1546;DHT22;766;51.502;9.752;2023-06-05T08:27:10;26.50;71.50
1546;DHT22;766;51.502;9.752;2023-06-05T08:29:39;27.70;71.30
1546;DHT22;766;51.502;9.752;2023-06-05T08:32:07;28.10;70.40
1546;DHT22;766;51.502;9.752;2023-06-05T08:34:36;28.10;68.50
1546;DHT22;766;51.502;9.752;2023-06-05T08:37:06;28.90;69.20
1546;DHT22;766;51.502;9.752;2023-06-05T08:39:34;28.30;69.30
1546;DHT22;766;51.502;9.752;2023-06-05T08:42:03;28.40;67.10
1546;DHT22;766;51.502;9.752;2023-06-05T08:44:32;26.80;70.40
1546;DHT22;766;51.502;9.752;2023-06-05T08:47:03;27.90;68.80
1546;DHT22;766;51.502;9.752;2023-06-05T08:49:31;28.70;68.50
1546;DHT22;766;51.502;9.752;2023-06-05T08:52:07;27.20;68.90
1546;DHT22;766;51.502;9.752;2023-06-05T08:54:37;27.70;68.90
1546;DHT22;766;51.502;9.752;2023-06-05T08:57:09;28.70;69.20
1546;DHT22;766;51.502;9.752;2023-06-05T08:59:38;26.80;70.70
1546;DHT22;766;51.502;9.752;2023-06-05T09:02:09;27.10;71.00
1546;DHT22;766;51.502;9.752;2023-06-05T09:04:38;28.00;66.60
1546;DHT22;766;51.502;9.752;2023-06-05T09:07:08;29.00;67.10
1546;DHT22;766;51.502;9.752;2023-06-05T09:09:37;28.50;68.30
1546;DHT22;766;51.502;9.752;2023-06-05T09:12:07;28.50;67.70
1546;DHT22;766;51.502;9.752;2023-06-05T09:14:35;28.60;64.00
1546;DHT22;766;51.502;9.752;2023-06-05T09:17:04;28.70;67.30
1546;DHT22;766;51.502;9.752;2023-06-05T09:19:37;28.40;65.30
1546;DHT22;766;51.502;9.752;2023-06-05T09:22:08;28.30;65.10
1546;DHT22;766;51.502;9.752;2023-06-05T09:24:37;28.30;64.10
1546;DHT22;766;51.502;9.752;2023-06-05T09:27:07;26.90;65.30
1546;DHT22;766;51.502;9.752;2023-06-05T09:29:37;27.90;66.30
1546;DHT22;766;51.502;9.752;2023-06-05T09:32:07;28.70;63.30
1546;DHT22;766;51.502;9.752;2023-06-05T09:34:37;27.50;66.00
1546;DHT22;766;51.502;9.752;2023-06-05T09:37:08;28.30;64.40
1546;DHT22;766;51.502;9.752;2023-06-05T09:39:38;28.40;68.30
1546;DHT22;766;51.502;9.752;2023-06-05T09:42:07;28.40;61.60
1546;DHT22;766;51.502;9.752;2023-06-05T09:44:35;27.90;61.30
1546;DHT22;766;51.502;9.752;2023-06-05T09:47:08;26.40;60.30
1546;DHT22;766;51.502;9.752;2023-06-05T09:49:47;26.10;63.30
1546;DHT22;766;51.502;9.752;2023-06-05T09:52:19;26.40;65.00
1546;DHT22;766;51.502;9.752;2023-06-05T09:54:47;26.80;59.50
1546;DHT22;766;51.502;9.752;2023-06-05T09:57:16;27.30;62.30
1546;DHT22;766;51.502;9.752;2023-06-05T09:59:49;27.60;62.90
1546;DHT22;766;51.502;9.752;2023-06-05T10:02:20;27.60;62.80
1546;DHT22;766;51.502;9.752;2023-06-05T10:04:51;27.80;64.80
1546;DHT22;766;51.502;9.752;2023-06-05T10:07:21;28.60;62.00
1546;DHT22;766;51.502;9.752;2023-06-05T10:09:50;27.50;63.50
1546;DHT22;766;51.502;9.752;2023-06-05T10:12:20;27.00;64.00
1546;DHT22;766;51.502;9.752;2023-06-05T10:14:50;27.60;63.50
1546;DHT22;766;51.502;9.752;2023-06-05T10:17:22;28.20;64.30
1546;DHT22;766;51.502;9.752;2023-06-05T10:19:51;29.30;60.90
1546;DHT22;766;51.502;9.752;2023-06-05T10:22:21;28.10;58.10
1546;DHT22;766;51.502;9.752;2023-06-05T10:24:54;27.10;59.40
1546;DHT22;766;51.502;9.752;2023-06-05T10:27:43;27.00;59.90
1546;DHT22;766;51.502;9.752;2023-06-05T10:33:25;27.40;59.00
1546;DHT22;766;51.502;9.752;2023-06-05T10:36:03;26.90;60.20
1546;DHT22;766;51.502;9.752;2023-06-05T10:38:40;27.40;64.20
1546;DHT22;766;51.502;9.752;2023-06-05T10:41:10;27.40;59.40
1546;DHT22;766;51.502;9.752;2023-06-05T10:43:46;27.20;60.30
1546;DHT22;766;51.502;9.752;2023-06-05T10:46:30;26.90;59.40
1546;DHT22;766;51.502;9.752;2023-06-05T10:49:36;27.00;59.90
1546;DHT22;766;51.502;9.752;2023-06-05T10:52:05;27.00;61.70
1546;DHT22;766;51.502;9.752;2023-06-05T10:54:57;26.80;63.60
1546;DHT22;766;51.502;9.752;2023-06-05T10:58:02;26.60;63.20
1546;DHT22;766;51.502;9.752;2023-06-05T11:00:31;26.10;62.00
1546;DHT22;766;51.502;9.752;2023-06-05T11:03:00;26.50;61.80
1546;DHT22;766;51.502;9.752;2023-06-05T11:05:29;26.50;61.40
1546;DHT22;766;51.502;9.752;2023-06-05T11:08:11;26.40;62.00
1546;DHT22;766;51.502;9.752;2023-06-05T11:11:04;27.00;66.60
1546;DHT22;766;51.502;9.752;2023-06-05T11:13:52;27.10;62.00
1546;DHT22;766;51.502;9.752;2023-06-05T11:16:29;26.70;62.70
1546;DHT22;766;51.502;9.752;2023-06-05T11:19:35;26.40;61.30
1546;DHT22;766;51.502;9.752;2023-06-05T11:22:08;26.10;62.30
1546;DHT22;766;51.502;9.752;2023-06-05T11:24:37;26.10;62.50
1546;DHT22;766;51.502;9.752;2023-06-05T11:27:43;25.70;62.80
1546;DHT22;766;51.502;9.752;2023-06-05T11:30:14;25.40;58.90
1546;DHT22;766;51.502;9.752;2023-06-05T11:33:14;26.00;61.10
1546;DHT22;766;51.502;9.752;2023-06-05T11:35:45;25.70;63.60
1546;DHT22;766;51.502;9.752;2023-06-05T11:38:15;25.40;61.70
1546;DHT22;766;51.502;9.752;2023-06-05T11:40:49;25.40;63.30
1546;DHT22;766;51.502;9.752;2023-06-05T11:43:19;25.30;62.00
1546;DHT22;766;51.502;9.752;2023-06-05T11:45:50;25.50;63.00
1546;DHT22;766;51.502;9.752;2023-06-05T11:48:26;26.00;61.30
1546;DHT22;766;51.502;9.752;2023-06-05T11:51:11;25.70;61.00
1546;DHT22;766;51.502;9.752;2023-06-05T11:53:54;25.00;62.20
1546;DHT22;766;51.502;9.752;2023-06-05T11:56:32;25.00;62.50
1546;DHT22;766;51.502;9.752;2023-06-05T11:59:15;25.80;67.70
1546;DHT22;766;51.502;9.752;2023-06-05T12:01:47;26.60;65.50
1546;DHT22;766;51.502;9.752;2023-06-05T12:04:18;26.90;62.10
1546;DHT22;766;51.502;9.752;2023-06-05T12:06:48;26.80;61.10
1546;DHT22;766;51.502;9.752;2023-06-05T12:09:18;26.40;63.40
1546;DHT22;766;51.502;9.752;2023-06-05T12:11:49;26.10;64.60
1546;DHT22;766;51.502;9.752;2023-06-05T12:14:31;25.50;63.40
1546;DHT22;766;51.502;9.752;2023-06-05T12:17:00;25.70;64.00
1546;DHT22;766;51.502;9.752;2023-06-05T12:19:36;25.20;64.40
1546;DHT22;766;51.502;9.752;2023-06-05T12:22:06;25.90;66.80
1546;DHT22;766;51.502;9.752;2023-06-05T12:24:37;25.20;63.70
1546;DHT22;766;51.502;9.752;2023-06-05T12:27:06;25.10;65.80
1546;DHT22;766;51.502;9.752;2023-06-05T12:29:38;25.10;66.90
1546;DHT22;766;51.502;9.752;2023-06-05T12:32:21;24.90;65.10
1546;DHT22;766;51.502;9.752;2023-06-05T12:34:52;25.00;67.60
1546;DHT22;766;51.502;9.752;2023-06-05T12:37:32;25.20;64.20
1546;DHT22;766;51.502;9.752;2023-06-05T12:40:06;25.20;65.50
1546;DHT22;766;51.502;9.752;2023-06-05T12:42:39;25.40;66.10
1546;DHT22;766;51.502;9.752;2023-06-05T12:45:12;25.90;66.60
1546;DHT22;766;51.502;9.752;2023-06-05T12:47:41;26.20;69.80
1546;DHT22;766;51.502;9.752;2023-06-05T12:50:12;25.80;69.80
1546;DHT22;766;51.502;9.752;2023-06-05T12:52:41;25.70;73.70
1546;DHT22;766;51.502;9.752;2023-06-05T12:55:10;25.90;72.50
1546;DHT22;766;51.502;9.752;2023-06-05T12:57:38;26.20;73.40
1546;DHT22;766;51.502;9.752;2023-06-05T13:00:08;26.20;70.70
1546;DHT22;766;51.502;9.752;2023-06-05T13:02:42;25.40;63.30
1546;DHT22;766;51.502;9.752;2023-06-05T13:05:16;25.30;64.70
1546;DHT22;766;51.502;9.752;2023-06-05T13:07:46;25.10;63.90
1546;DHT22;766;51.502;9.752;2023-06-05T13:10:17;24.40;64.80
1546;DHT22;766;51.502;9.752;2023-06-05T13:12:45;24.80;67.80
1546;DHT22;766;51.502;9.752;2023-06-05T13:15:14;25.30;71.20
1546;DHT22;766;51.502;9.752;2023-06-05T13:17:44;25.80;72.10
1546;DHT22;766;51.502;9.752;2023-06-05T13:20:15;26.00;74.80
1546;DHT22;766;51.502;9.752;2023-06-05T13:22:43;25.40;67.90
1546;DHT22;766;51.502;9.752;2023-06-05T13:25:12;25.50;70.10
1546;DHT22;766;51.502;9.752;2023-06-05T13:27:40;25.50;69.20
1546;DHT22;766;51.502;9.752;2023-06-05T13:30:09;25.50;68.20
1546;DHT22;766;51.502;9.752;2023-06-05T13:32:38;25.70;72.10
1546;DHT22;766;51.502;9.752;2023-06-05T13:35:10;25.90;72.90
1546;DHT22;766;51.502;9.752;2023-06-05T13:37:38;26.10;71.40
1546;DHT22;766;51.502;9.752;2023-06-05T13:40:08;26.40;69.40
1546;DHT22;766;51.502;9.752;2023-06-05T13:42:38;26.30;70.10
1546;DHT22;766;51.502;9.752;2023-06-05T13:45:08;26.10;71.80
1546;DHT22;766;51.502;9.752;2023-06-05T13:47:37;25.80;70.10
1546;DHT22;766;51.502;9.752;2023-06-05T13:50:06;25.30;72.00
1546;DHT22;766;51.502;9.752;2023-06-05T13:52:36;25.70;74.70
1546;DHT22;766;51.502;9.752;2023-06-05T13:55:08;26.00;74.20
1546;DHT22;766;51.502;9.752;2023-06-05T13:57:36;26.20;72.20
1546;DHT22;766;51.502;9.752;2023-06-05T14:00:06;26.30;73.20
1546;DHT22;766;51.502;9.752;2023-06-05T14:02:35;25.70;67.60
1546;DHT22;766;51.502;9.752;2023-06-05T14:05:05;25.00;66.30
1546;DHT22;766;51.502;9.752;2023-06-05T14:07:34;24.50;65.20
1546;DHT22;766;51.502;9.752;2023-06-05T14:10:18;24.20;68.50
1546;DHT22;766;51.502;9.752;2023-06-05T14:12:49;24.50;66.20
1546;DHT22;766;51.502;9.752;2023-06-05T14:15:18;24.40;64.60
1546;DHT22;766;51.502;9.752;2023-06-05T14:17:49;24.30;65.20
1546;DHT22;766;51.502;9.752;2023-06-05T14:20:19;24.40;64.80
1546;DHT22;766;51.502;9.752;2023-06-05T14:22:47;24.20;69.00
1546;DHT22;766;51.502;9.752;2023-06-05T14:25:18;24.10;65.80
1546;DHT22;766;51.502;9.752;2023-06-05T14:27:46;24.30;69.50
1546;DHT22;766;51.502;9.752;2023-06-05T14:30:16;24.10;66.60
1546;DHT22;766;51.502;9.752;2023-06-05T14:32:44;24.30;65.00
1546;DHT22;766;51.502;9.752;2023-06-05T14:35:13;24.00;65.70
1546;DHT22;766;51.502;9.752;2023-06-05T14:37:43;23.90;65.20
1546;DHT22;766;51.502;9.752;2023-06-05T14:40:11;24.10;67.00
1546;DHT22;766;51.502;9.752;2023-06-05T14:42:41;24.40;68.60
1546;DHT22;766;51.502;9.752;2023-06-05T14:45:10;24.50;69.80
1546;DHT22;766;51.502;9.752;2023-06-05T14:47:39;24.70;70.80
1546;DHT22;766;51.502;9.752;2023-06-05T14:50:08;24.70;71.20
1546;DHT22;766;51.502;9.752;2023-06-05T14:52:36;24.70;69.50
1546;DHT22;766;51.502;9.752;2023-06-05T14:55:06;24.40;69.60
1546;DHT22;766;51.502;9.752;2023-06-05T14:57:37;24.50;70.60
1546;DHT22;766;51.502;9.752;2023-06-05T15:00:10;24.60;70.40
1546;DHT22;766;51.502;9.752;2023-06-05T15:02:38;24.50;70.80
1546;DHT22;766;51.502;9.752;2023-06-05T15:05:07;24.40;67.40
1546;DHT22;766;51.502;9.752;2023-06-05T15:07:36;24.00;68.50
1546;DHT22;766;51.502;9.752;2023-06-05T15:10:06;23.70;71.20
1546;DHT22;766;51.502;9.752;2023-06-05T15:12:36;23.70;70.80
1546;DHT22;766;51.502;9.752;2023-06-05T15:15:08;23.60;70.80
1546;DHT22;766;51.502;9.752;2023-06-05T15:17:41;23.70;73.30
1546;DHT22;766;51.502;9.752;2023-06-05T15:20:10;23.80;70.60
1546;DHT22;766;51.502;9.752;2023-06-05T15:22:38;23.70;74.10
1546;DHT22;766;51.502;9.752;2023-06-05T15:25:07;23.70;74.80
1546;DHT22;766;51.502;9.752;2023-06-05T15:27:35;23.80;75.10
1546;DHT22;766;51.502;9.752;2023-06-05T15:30:06;23.80;74.80
1546;DHT22;766;51.502;9.752;2023-06-05T15:32:35;23.80;73.40
1546;DHT22;766;51.502;9.752;2023-06-05T15:35:04;23.50;72.60
1546;DHT22;766;51.502;9.752;2023-06-05T15:37:33;23.50;70.20
1546;DHT22;766;51.502;9.752;2023-06-05T15:40:01;23.30;70.50
1546;DHT22;766;51.502;9.752;2023-06-05T15:42:34;23.50;69.80
1546;DHT22;766;51.502;9.752;2023-06-05T15:45:07;23.60;70.70
1546;DHT22;766;51.502;9.752;2023-06-05T15:47:37;23.80;74.80
1546;DHT22;766;51.502;9.752;2023-06-05T15:50:06;23.60;72.50
1546;DHT22;766;51.502;9.752;2023-06-05T15:52:37;23.70;75.30
1546;DHT22;766;51.502;9.752;2023-06-05T15:55:07;23.80;76.50
1546;DHT22;766;51.502;9.752;2023-06-05T15:57:36;23.90;76.90
1546;DHT22;766;51.502;9.752;2023-06-05T16:00:06;24.10;75.20
1546;DHT22;766;51.502;9.752;2023-06-05T16:02:37;24.20;76.70
1546;DHT22;766;51.502;9.752;2023-06-05T16:05:06;24.30;77.30
1546;DHT22;766;51.502;9.752;2023-06-05T16:07:34;24.20;76.60
1546;DHT22;766;51.502;9.752;2023-06-05T16:10:03;24.10;76.80
1546;DHT22;766;51.502;9.752;2023-06-05T16:12:31;24.10;74.60
1546;DHT22;766;51.502;9.752;2023-06-05T16:15:00;24.00;75.00
1546;DHT22;766;51.502;9.752;2023-06-05T16:17:28;24.00;75.50
1546;DHT22;766;51.502;9.752;2023-06-05T16:19:58;24.00;77.50
1546;DHT22;766;51.502;9.752;2023-06-05T16:22:26;24.10;74.80
1546;DHT22;766;51.502;9.752;2023-06-05T16:24:54;24.10;76.70
1546;DHT22;766;51.502;9.752;2023-06-05T16:27:23;24.20;73.40
1546;DHT22;766;51.502;9.752;2023-06-05T16:29:53;24.10;75.40
1546;DHT22;766;51.502;9.752;2023-06-05T16:32:22;24.10;75.00
1546;DHT22;766;51.502;9.752;2023-06-05T16:34:50;24.20;75.10
1546;DHT22;766;51.502;9.752;2023-06-05T16:37:20;24.10;75.10
1546;DHT22;766;51.502;9.752;2023-06-05T16:39:48;23.90;74.10
1546;DHT22;766;51.502;9.752;2023-06-05T16:42:17;23.90;74.40
1546;DHT22;766;51.502;9.752;2023-06-05T16:44:45;23.30;72.50
1546;DHT22;766;51.502;9.752;2023-06-05T16:47:14;23.00;72.90
1546;DHT22;766;51.502;9.752;2023-06-05T16:49:42;23.20;73.40